Terminal Aerodrome Forecast
Issued by NWS

Home | Current Version | Previous Version | Text Only | Print | Product List | Glossary On
Versions: 1 2 3 4 5 6 7 8 9 10 11 12 13 14 15 16 17 18 19 20 21 22 23 24 25
000
FTUS46 KSGX 211738
TAFSAN
TAF
KSAN 211738Z 2118/2224 21006KT P6SM SCT015
     FM211900 22008KT P6SM SKC
     FM220200 23006KT P6SM FEW015
     FM220500 20004KT P6SM BKN012
     FM221700 20004KT P6SM SCT015
     FM222000 25008KT P6SM SKC=

USA.gov is the U.S. government's official web portal to all federal, state and local government web resources and services.